sensor_id;sensor_type;location;lat;lon;timestamp;pressure;altitude;pressure_sealevel;temperature;humidity
77323;BME280;66384;51.052;9.850;2023-03-04T00:01:46;99210.73;;;2.10;68.23
77323;BME280;66384;51.052;9.850;2023-03-04T00:04:16;99208.18;;;2.09;68.10
77323;BME280;66384;51.052;9.850;2023-03-04T00:06:46;99207.38;;;2.10;68.40
77323;BME280;66384;51.052;9.850;2023-03-04T00:09:15;99207.02;;;2.10;68.24
77323;BME280;66384;51.052;9.850;2023-03-04T00:11:44;99209.83;;;2.09;68.54
77323;BME280;66384;51.052;9.850;2023-03-04T00:14:13;99209.61;;;2.11;68.19
77323;BME280;66384;51.052;9.850;2023-03-04T00:16:43;99205.06;;;2.13;68.03
77323;BME280;66384;51.052;9.850;2023-03-04T00:19:12;99208.88;;;2.17;68.11
77323;BME280;66384;51.052;9.850;2023-03-04T00:21:41;99206.23;;;2.23;68.44
77323;BME280;66384;51.052;9.850;2023-03-04T00:24:11;99204.23;;;2.26;68.05
77323;BME280;66384;51.052;9.850;2023-03-04T00:26:40;99202.04;;;2.26;67.88
77323;BME280;66384;51.052;9.850;2023-03-04T00:29:09;99199.14;;;2.26;67.87
77323;BME280;66384;51.052;9.850;2023-03-04T00:31:38;99200.82;;;2.28;68.22
77323;BME280;66384;51.052;9.850;2023-03-04T00:34:08;99198.61;;;2.32;68.12
77323;BME280;66384;51.052;9.850;2023-03-04T00:36:37;99196.34;;;2.33;67.88
77323;BME280;66384;51.052;9.850;2023-03-04T00:39:06;99189.95;;;2.34;67.96
77323;BME280;66384;51.052;9.850;2023-03-04T00:41:36;99186.14;;;2.35;67.99
77323;BME280;66384;51.052;9.850;2023-03-04T00:44:05;99184.89;;;2.34;68.04
77323;BME280;66384;51.052;9.850;2023-03-04T00:46:35;99181.38;;;2.33;67.97
77323;BME280;66384;51.052;9.850;2023-03-04T00:49:04;99183.88;;;2.32;67.85
77323;BME280;66384;51.052;9.850;2023-03-04T00:51:34;99180.31;;;2.32;68.25
77323;BME280;66384;51.052;9.850;2023-03-04T00:54:04;99178.59;;;2.31;68.05
77323;BME280;66384;51.052;9.850;2023-03-04T00:56:33;99179.15;;;2.30;67.96
77323;BME280;66384;51.052;9.850;2023-03-04T00:59:02;99178.98;;;2.30;67.71
77323;BME280;66384;51.052;9.850;2023-03-04T01:01:31;99177.55;;;2.28;68.00
77323;BME280;66384;51.052;9.850;2023-03-04T01:04:01;99175.77;;;2.27;67.89
77323;BME280;66384;51.052;9.850;2023-03-04T01:06:30;99170.55;;;2.25;67.94
77323;BME280;66384;51.052;9.850;2023-03-04T01:08:59;99170.86;;;2.25;67.93
77323;BME280;66384;51.052;9.850;2023-03-04T01:11:28;99163.64;;;2.23;68.12
77323;BME280;66384;51.052;9.850;2023-03-04T01:13:58;99160.61;;;2.21;68.14
77323;BME280;66384;51.052;9.850;2023-03-04T01:16:27;99160.75;;;2.21;68.17
77323;BME280;66384;51.052;9.850;2023-03-04T01:18:56;99157.95;;;2.22;68.19
77323;BME280;66384;51.052;9.850;2023-03-04T01:21:26;99152.16;;;2.21;68.35
77323;BME280;66384;51.052;9.850;2023-03-04T01:23:55;99153.98;;;2.21;67.99
77323;BME280;66384;51.052;9.850;2023-03-04T01:26:24;99153.73;;;2.22;68.18
77323;BME280;66384;51.052;9.850;2023-03-04T01:28:53;99149.04;;;2.23;67.99
77323;BME280;66384;51.052;9.850;2023-03-04T01:31:23;99145.89;;;2.24;68.18
77323;BME280;66384;51.052;9.850;2023-03-04T01:33:52;99139.55;;;2.23;67.71
77323;BME280;66384;51.052;9.850;2023-03-04T01:36:21;99140.35;;;2.22;68.25
77323;BME280;66384;51.052;9.850;2023-03-04T01:38:51;99142.73;;;2.23;67.73
77323;BME280;66384;51.052;9.850;2023-03-04T01:41:25;99139.54;;;2.23;67.95
77323;BME280;66384;51.052;9.850;2023-03-04T01:43:57;99137.65;;;2.22;68.07
77323;BME280;66384;51.052;9.850;2023-03-04T01:46:28;99131.02;;;2.23;67.98
77323;BME280;66384;51.052;9.850;2023-03-04T01:48:58;99126.39;;;2.24;67.93
77323;BME280;66384;51.052;9.850;2023-03-04T01:51:28;99124.61;;;2.26;68.18
77323;BME280;66384;51.052;9.850;2023-03-04T01:53:57;99120.65;;;2.27;68.26
77323;BME280;66384;51.052;9.850;2023-03-04T01:56:29;99117.02;;;2.29;67.75
77323;BME280;66384;51.052;9.850;2023-03-04T01:59:10;99121.02;;;2.31;67.86
77323;BME280;66384;51.052;9.850;2023-03-04T02:01:41;99120.99;;;2.31;68.25
77323;BME280;66384;51.052;9.850;2023-03-04T02:04:10;99120.51;;;2.31;68.07
77323;BME280;66384;51.052;9.850;2023-03-04T02:06:40;99115.46;;;2.32;67.62
77323;BME280;66384;51.052;9.850;2023-03-04T02:09:10;99116.02;;;2.32;67.86
77323;BME280;66384;51.052;9.850;2023-03-04T02:11:40;99116.72;;;2.30;67.90
77323;BME280;66384;51.052;9.850;2023-03-04T02:14:11;99118.67;;;2.28;67.98
77323;BME280;66384;51.052;9.850;2023-03-04T02:16:41;99111.86;;;2.25;67.67
77323;BME280;66384;51.052;9.850;2023-03-04T02:19:15;99113.34;;;2.25;67.90
77323;BME280;66384;51.052;9.850;2023-03-04T02:21:47;99113.77;;;2.26;67.89
77323;BME280;66384;51.052;9.850;2023-03-04T02:24:21;99113.39;;;2.28;67.72
77323;BME280;66384;51.052;9.850;2023-03-04T02:26:53;99110.13;;;2.31;67.63
77323;BME280;66384;51.052;9.850;2023-03-04T02:29:23;99105.44;;;2.31;67.79
77323;BME280;66384;51.052;9.850;2023-03-04T02:31:53;99103.80;;;2.33;67.95
77323;BME280;66384;51.052;9.850;2023-03-04T02:34:27;99101.92;;;2.35;67.86
77323;BME280;66384;51.052;9.850;2023-03-04T02:36:58;99100.33;;;2.36;67.57
77323;BME280;66384;51.052;9.850;2023-03-04T02:39:32;99099.57;;;2.35;67.59
77323;BME280;66384;51.052;9.850;2023-03-04T02:42:03;99101.77;;;2.35;67.77
77323;BME280;66384;51.052;9.850;2023-03-04T02:44:33;99093.43;;;2.35;67.46
77323;BME280;66384;51.052;9.850;2023-03-04T02:47:02;99096.24;;;2.34;67.30
77323;BME280;66384;51.052;9.850;2023-03-04T02:49:32;99097.58;;;2.33;67.23
77323;BME280;66384;51.052;9.850;2023-03-04T02:52:04;99091.41;;;2.32;67.17
77323;BME280;66384;51.052;9.850;2023-03-04T02:54:34;99091.61;;;2.33;67.55
77323;BME280;66384;51.052;9.850;2023-03-04T02:57:05;99086.23;;;2.34;67.55
77323;BME280;66384;51.052;9.850;2023-03-04T02:59:35;99076.81;;;2.32;67.22
77323;BME280;66384;51.052;9.850;2023-03-04T03:02:04;99074.27;;;2.33;67.28
77323;BME280;66384;51.052;9.850;2023-03-04T03:04:35;99075.52;;;2.34;67.13
77323;BME280;66384;51.052;9.850;2023-03-04T03:07:05;99074.83;;;2.36;67.05
77323;BME280;66384;51.052;9.850;2023-03-04T03:09:34;99074.21;;;2.37;67.01
77323;BME280;66384;51.052;9.850;2023-03-04T03:12:04;99073.70;;;2.37;66.82
77323;BME280;66384;51.052;9.850;2023-03-04T03:14:33;99069.25;;;2.36;66.67
77323;BME280;66384;51.052;9.850;2023-03-04T03:17:03;99069.77;;;2.36;66.81
77323;BME280;66384;51.052;9.850;2023-03-04T03:19:32;99070.91;;;2.38;66.87
77323;BME280;66384;51.052;9.850;2023-03-04T03:22:01;99069.71;;;2.40;66.91
77323;BME280;66384;51.052;9.850;2023-03-04T03:24:31;99061.08;;;2.41;66.68
77323;BME280;66384;51.052;9.850;2023-03-04T03:27:00;99062.89;;;2.43;66.85
77323;BME280;66384;51.052;9.850;2023-03-04T03:29:29;99061.61;;;2.44;66.78
77323;BME280;66384;51.052;9.850;2023-03-04T03:31:58;99064.47;;;2.43;66.50
77323;BME280;66384;51.052;9.850;2023-03-04T03:34:28;99058.89;;;2.44;66.68
77323;BME280;66384;51.052;9.850;2023-03-04T03:36:57;99057.88;;;2.44;66.64
77323;BME280;66384;51.052;9.850;2023-03-04T03:39:27;99063.65;;;2.44;66.57
77323;BME280;66384;51.052;9.850;2023-03-04T03:41:56;99062.63;;;2.44;66.90
77323;BME280;66384;51.052;9.850;2023-03-04T03:44:25;99066.05;;;2.42;66.53
77323;BME280;66384;51.052;9.850;2023-03-04T03:46:55;99059.19;;;2.40;66.41
77323;BME280;66384;51.052;9.850;2023-03-04T03:49:24;99057.52;;;2.38;66.81
77323;BME280;66384;51.052;9.850;2023-03-04T03:51:53;99058.81;;;2.37;66.95
77323;BME280;66384;51.052;9.850;2023-03-04T03:54:23;99058.98;;;2.37;66.67
77323;BME280;66384;51.052;9.850;2023-03-04T03:56:52;99057.98;;;2.38;66.81
77323;BME280;66384;51.052;9.850;2023-03-04T03:59:21;99060.36;;;2.38;66.84
77323;BME280;66384;51.052;9.850;2023-03-04T04:01:51;99061.16;;;2.37;66.66
77323;BME280;66384;51.052;9.850;2023-03-04T04:04:20;99060.06;;;2.35;67.13
77323;BME280;66384;51.052;9.850;2023-03-04T04:06:50;99060.45;;;2.36;66.81
77323;BME280;66384;51.052;9.850;2023-03-04T04:09:19;99059.38;;;2.38;67.00
77323;BME280;66384;51.052;9.850;2023-03-04T04:11:48;99058.46;;;2.40;67.10
77323;BME280;66384;51.052;9.850;2023-03-04T04:14:18;99059.64;;;2.39;66.88
77323;BME280;66384;51.052;9.850;2023-03-04T04:16:47;99055.33;;;2.39;66.95
77323;BME280;66384;51.052;9.850;2023-03-04T04:19:19;99054.75;;;2.37;67.09
77323;BME280;66384;51.052;9.850;2023-03-04T04:21:48;99053.66;;;2.36;67.16
77323;BME280;66384;51.052;9.850;2023-03-04T04:24:18;99055.57;;;2.37;66.66
77323;BME280;66384;51.052;9.850;2023-03-04T04:26:47;99055.86;;;2.36;67.01
77323;BME280;66384;51.052;9.850;2023-03-04T04:29:17;99055.71;;;2.37;67.23
77323;BME280;66384;51.052;9.850;2023-03-04T04:31:46;99055.61;;;2.38;66.92
77323;BME280;66384;51.052;9.850;2023-03-04T04:34:15;99057.45;;;2.37;66.80
77323;BME280;66384;51.052;9.850;2023-03-04T04:36:44;99058.29;;;2.37;66.93
77323;BME280;66384;51.052;9.850;2023-03-04T04:39:14;99051.29;;;2.37;66.90
77323;BME280;66384;51.052;9.850;2023-03-04T04:41:44;99052.02;;;2.37;66.85
77323;BME280;66384;51.052;9.850;2023-03-04T04:44:14;99049.36;;;2.38;66.70
77323;BME280;66384;51.052;9.850;2023-03-04T04:46:43;99044.05;;;2.40;66.90
77323;BME280;66384;51.052;9.850;2023-03-04T04:49:12;99042.70;;;2.40;66.89
77323;BME280;66384;51.052;9.850;2023-03-04T04:51:42;99043.73;;;2.40;67.35
77323;BME280;66384;51.052;9.850;2023-03-04T04:54:13;99040.64;;;2.40;67.24
77323;BME280;66384;51.052;9.850;2023-03-04T04:56:43;99041.73;;;2.41;67.15
77323;BME280;66384;51.052;9.850;2023-03-04T04:59:12;99044.39;;;2.43;67.03
77323;BME280;66384;51.052;9.850;2023-03-04T05:01:42;99048.53;;;2.44;66.92
77323;BME280;66384;51.052;9.850;2023-03-04T05:04:11;99048.85;;;2.43;66.72
77323;BME280;66384;51.052;9.850;2023-03-04T05:06:40;99050.63;;;2.45;66.69
77323;BME280;66384;51.052;9.850;2023-03-04T05:09:10;99045.34;;;2.44;67.04
77323;BME280;66384;51.052;9.850;2023-03-04T05:11:40;99043.93;;;2.43;66.83
77323;BME280;66384;51.052;9.850;2023-03-04T05:14:09;99040.63;;;2.42;67.00
77323;BME280;66384;51.052;9.850;2023-03-04T05:16:39;99047.02;;;2.41;67.04
77323;BME280;66384;51.052;9.850;2023-03-04T05:19:08;99045.27;;;2.41;66.85
77323;BME280;66384;51.052;9.850;2023-03-04T05:21:37;99042.35;;;2.40;66.93
77323;BME280;66384;51.052;9.850;2023-03-04T05:24:07;99039.45;;;2.40;67.00
77323;BME280;66384;51.052;9.850;2023-03-04T05:26:37;99040.70;;;2.41;67.04
77323;BME280;66384;51.052;9.850;2023-03-04T05:29:06;99043.14;;;2.42;67.26
77323;BME280;66384;51.052;9.850;2023-03-04T05:31:35;99045.77;;;2.40;67.10
77323;BME280;66384;51.052;9.850;2023-03-04T05:34:04;99048.48;;;2.40;67.05
77323;BME280;66384;51.052;9.850;2023-03-04T05:36:34;99048.53;;;2.41;67.47
77323;BME280;66384;51.052;9.850;2023-03-04T05:39:03;99050.63;;;2.42;67.07
77323;BME280;66384;51.052;9.850;2023-03-04T05:41:32;99048.58;;;2.42;67.23
77323;BME280;66384;51.052;9.850;2023-03-04T05:44:02;99045.88;;;2.42;66.82
77323;BME280;66384;51.052;9.850;2023-03-04T05:46:31;99050.40;;;2.43;67.01
77323;BME280;66384;51.052;9.850;2023-03-04T05:49:00;99047.64;;;2.46;66.86
77323;BME280;66384;51.052;9.850;2023-03-04T05:51:30;99050.00;;;2.48;66.98
77323;BME280;66384;51.052;9.850;2023-03-04T05:53:59;99056.67;;;2.49;66.92
77323;BME280;66384;51.052;9.850;2023-03-04T05:56:28;99056.98;;;2.48;67.11
77323;BME280;66384;51.052;9.850;2023-03-04T05:58:58;99051.81;;;2.45;66.77
77323;BME280;66384;51.052;9.850;2023-03-04T06:01:28;99052.64;;;2.44;67.29
77323;BME280;66384;51.052;9.850;2023-03-04T06:03:58;99054.41;;;2.45;67.10
77323;BME280;66384;51.052;9.850;2023-03-04T06:06:27;99057.66;;;2.48;66.95
77323;BME280;66384;51.052;9.850;2023-03-04T06:08:57;99057.95;;;2.50;66.86
77323;BME280;66384;51.052;9.850;2023-03-04T06:11:27;99059.80;;;2.50;67.06
77323;BME280;66384;51.052;9.850;2023-03-04T06:13:56;99056.37;;;2.49;66.82
77323;BME280;66384;51.052;9.850;2023-03-04T06:16:25;99059.20;;;2.51;66.96
77323;BME280;66384;51.052;9.850;2023-03-04T06:18:55;99059.28;;;2.53;66.98
77323;BME280;66384;51.052;9.850;2023-03-04T06:21:24;99059.02;;;2.54;67.37
77323;BME280;66384;51.052;9.850;2023-03-04T06:23:53;99058.62;;;2.56;67.14
77323;BME280;66384;51.052;9.850;2023-03-04T06:26:23;99060.64;;;2.58;67.15
77323;BME280;66384;51.052;9.850;2023-03-04T06:28:52;99059.89;;;2.60;66.83
77323;BME280;66384;51.052;9.850;2023-03-04T06:31:23;99066.59;;;2.61;67.11
77323;BME280;66384;51.052;9.850;2023-03-04T06:33:53;99062.39;;;2.59;66.98
77323;BME280;66384;51.052;9.850;2023-03-04T06:36:22;99066.58;;;2.61;67.19
77323;BME280;66384;51.052;9.850;2023-03-04T06:38:51;99070.07;;;2.62;67.35
77323;BME280;66384;51.052;9.850;2023-03-04T06:41:20;99071.84;;;2.63;67.16
77323;BME280;66384;51.052;9.850;2023-03-04T06:43:50;99072.04;;;2.66;67.22
77323;BME280;66384;51.052;9.850;2023-03-04T06:46:19;99077.34;;;2.69;66.91
77323;BME280;66384;51.052;9.850;2023-03-04T06:48:49;99077.13;;;2.71;66.97
77323;BME280;66384;51.052;9.850;2023-03-04T06:51:18;99079.08;;;2.72;66.86
77323;BME280;66384;51.052;9.850;2023-03-04T06:53:47;99078.05;;;2.72;66.85
77323;BME280;66384;51.052;9.850;2023-03-04T06:56:17;99077.45;;;2.74;67.01
77323;BME280;66384;51.052;9.850;2023-03-04T06:58:47;99073.99;;;2.76;66.91
77323;BME280;66384;51.052;9.850;2023-03-04T07:01:18;99073.84;;;2.76;66.79
77323;BME280;66384;51.052;9.850;2023-03-04T07:03:48;99075.92;;;2.77;67.22
77323;BME280;66384;51.052;9.850;2023-03-04T07:06:19;99070.70;;;2.78;66.93
77323;BME280;66384;51.052;9.850;2023-03-04T07:08:49;99072.43;;;2.78;66.74
77323;BME280;66384;51.052;9.850;2023-03-04T07:11:19;99072.98;;;2.79;67.07
77323;BME280;66384;51.052;9.850;2023-03-04T07:13:49;99074.65;;;2.79;66.66
77323;BME280;66384;51.052;9.850;2023-03-04T07:16:20;99078.95;;;2.80;66.57
77323;BME280;66384;51.052;9.850;2023-03-04T07:18:50;99076.05;;;2.82;66.65
77323;BME280;66384;51.052;9.850;2023-03-04T07:21:19;99081.04;;;2.83;66.60
77323;BME280;66384;51.052;9.850;2023-03-04T07:23:49;99079.46;;;2.85;66.81
77323;BME280;66384;51.052;9.850;2023-03-04T07:26:18;99079.30;;;2.88;66.75
77323;BME280;66384;51.052;9.850;2023-03-04T07:28:48;99078.48;;;2.91;66.72
77323;BME280;66384;51.052;9.850;2023-03-04T07:31:23;99084.58;;;2.93;66.87
77323;BME280;66384;51.052;9.850;2023-03-04T07:33:57;99085.36;;;2.95;66.66
77323;BME280;66384;51.052;9.850;2023-03-04T07:36:27;99090.73;;;2.96;66.56
77323;BME280;66384;51.052;9.850;2023-03-04T07:38:56;99091.02;;;2.95;66.65
77323;BME280;66384;51.052;9.850;2023-03-04T07:41:27;99091.74;;;2.96;66.74
77323;BME280;66384;51.052;9.850;2023-03-04T07:43:57;99094.37;;;2.97;66.75
77323;BME280;66384;51.052;9.850;2023-03-04T07:46:27;99096.16;;;2.99;66.90
77323;BME280;66384;51.052;9.850;2023-03-04T07:48:56;99095.66;;;3.02;66.56
77323;BME280;66384;51.052;9.850;2023-03-04T07:51:26;99095.80;;;3.04;66.55
77323;BME280;66384;51.052;9.850;2023-03-04T07:53:57;99100.85;;;3.06;66.81
77323;BME280;66384;51.052;9.850;2023-03-04T07:56:29;99096.13;;;3.09;66.56
77323;BME280;66384;51.052;9.850;2023-03-04T07:59:00;99093.70;;;3.11;66.47
77323;BME280;66384;51.052;9.850;2023-03-04T08:01:30;99096.55;;;3.14;66.69
77323;BME280;66384;51.052;9.850;2023-03-04T08:04:00;99101.42;;;3.15;66.47
77323;BME280;66384;51.052;9.850;2023-03-04T08:06:30;99096.89;;;3.16;66.33
77323;BME280;66384;51.052;9.850;2023-03-04T08:09:01;99101.27;;;3.18;66.66
77323;BME280;66384;51.052;9.850;2023-03-04T08:11:31;99096.98;;;3.21;66.90
77323;BME280;66384;51.052;9.850;2023-03-04T08:14:01;99096.86;;;3.22;66.57
77323;BME280;66384;51.052;9.850;2023-03-04T08:16:31;99099.67;;;3.23;66.57
77323;BME280;66384;51.052;9.850;2023-03-04T08:19:02;99101.51;;;3.25;66.54
77323;BME280;66384;51.052;9.850;2023-03-04T08:21:32;99098.57;;;3.27;66.81
77323;BME280;66384;51.052;9.850;2023-03-04T08:24:02;99097.30;;;3.29;66.39
77323;BME280;66384;51.052;9.850;2023-03-04T08:26:37;99096.27;;;3.31;66.87
77323;BME280;66384;51.052;9.850;2023-03-04T08:29:11;99092.16;;;3.33;66.64
77323;BME280;66384;51.052;9.850;2023-03-04T08:31:41;99089.55;;;3.36;66.80
77323;BME280;66384;51.052;9.850;2023-03-04T08:34:13;99085.66;;;3.38;66.56
77323;BME280;66384;51.052;9.850;2023-03-04T08:36:43;99083.79;;;3.38;66.55
77323;BME280;66384;51.052;9.850;2023-03-04T08:39:14;99082.89;;;3.40;66.59
77323;BME280;66384;51.052;9.850;2023-03-04T08:41:45;99082.02;;;3.43;66.53
77323;BME280;66384;51.052;9.850;2023-03-04T08:44:15;99081.31;;;3.45;66.42
77323;BME280;66384;51.052;9.850;2023-03-04T08:46:44;99077.77;;;3.49;66.47
77323;BME280;66384;51.052;9.850;2023-03-04T08:49:14;99077.59;;;3.51;66.49
77323;BME280;66384;51.052;9.850;2023-03-04T08:51:43;99074.95;;;3.52;66.34
77323;BME280;66384;51.052;9.850;2023-03-04T08:54:13;99067.55;;;3.54;66.36
77323;BME280;66384;51.052;9.850;2023-03-04T08:56:42;99071.17;;;3.57;66.49
77323;BME280;66384;51.052;9.850;2023-03-04T08:59:11;99066.45;;;3.64;66.26
77323;BME280;66384;51.052;9.850;2023-03-04T09:01:41;99067.16;;;3.71;66.07
77323;BME280;66384;51.052;9.850;2023-03-04T09:04:10;99066.11;;;3.79;66.05
77323;BME280;66384;51.052;9.850;2023-03-04T09:06:39;99062.60;;;3.86;65.92
77323;BME280;66384;51.052;9.850;2023-03-04T09:09:09;99061.00;;;3.90;66.01
77323;BME280;66384;51.052;9.850;2023-03-04T09:11:38;99061.56;;;3.94;65.69
77323;BME280;66384;51.052;9.850;2023-03-04T09:14:07;99057.08;;;3.96;65.50
77323;BME280;66384;51.052;9.850;2023-03-04T09:16:36;99057.13;;;3.97;65.28
77323;BME280;66384;51.052;9.850;2023-03-04T09:19:06;99059.29;;;3.99;65.09
77323;BME280;66384;51.052;9.850;2023-03-04T09:21:35;99060.86;;;4.02;65.45
77323;BME280;66384;51.052;9.850;2023-03-04T09:24:05;99060.34;;;4.05;65.31
77323;BME280;66384;51.052;9.850;2023-03-04T09:26:34;99064.15;;;4.09;65.30
77323;BME280;66384;51.052;9.850;2023-03-04T09:29:04;99058.25;;;4.13;65.31
77323;BME280;66384;51.052;9.850;2023-03-04T09:31:33;99059.03;;;4.18;65.34
77323;BME280;66384;51.052;9.850;2023-03-04T09:34:03;99059.73;;;4.22;65.10
77323;BME280;66384;51.052;9.850;2023-03-04T09:36:32;99058.51;;;4.27;65.16
77323;BME280;66384;51.052;9.850;2023-03-04T09:39:02;99064.92;;;4.32;65.14
77323;BME280;66384;51.052;9.850;2023-03-04T09:41:38;99064.31;;;4.36;65.02
77323;BME280;66384;51.052;9.850;2023-03-04T09:44:14;99066.17;;;4.39;64.94
77323;BME280;66384;51.052;9.850;2023-03-04T09:46:47;99070.46;;;4.42;64.92
77323;BME280;66384;51.052;9.850;2023-03-04T09:49:18;99069.69;;;4.44;64.97
77323;BME280;66384;51.052;9.850;2023-03-04T09:51:55;99063.79;;;4.45;65.05
77323;BME280;66384;51.052;9.850;2023-03-04T09:54:43;99061.90;;;4.47;65.07
77323;BME280;66384;51.052;9.850;2023-03-04T09:57:25;99059.39;;;4.51;65.15
77323;BME280;66384;51.052;9.850;2023-03-04T10:00:04;99059.02;;;4.54;65.09
77323;BME280;66384;51.052;9.850;2023-03-04T10:02:44;99055.58;;;4.56;65.04
77323;BME280;66384;51.052;9.850;2023-03-04T10:05:18;99058.01;;;4.58;65.18
77323;BME280;66384;51.052;9.850;2023-03-04T10:07:51;99051.32;;;4.60;65.26
77323;BME280;66384;51.052;9.850;2023-03-04T10:10:26;99052.62;;;4.65;65.40
77323;BME280;66384;51.052;9.850;2023-03-04T10:13:00;99049.21;;;4.68;65.32
77323;BME280;66384;51.052;9.850;2023-03-04T10:15:34;99047.30;;;4.70;65.29
77323;BME280;66384;51.052;9.850;2023-03-04T10:18:13;99045.42;;;4.73;65.31
77323;BME280;66384;51.052;9.850;2023-03-04T10:20:51;99049.09;;;4.75;65.25
77323;BME280;66384;51.052;9.850;2023-03-04T10:23:25;99048.41;;;4.75;65.21
77323;BME280;66384;51.052;9.850;2023-03-04T10:25:55;99051.83;;;4.75;65.40
77323;BME280;66384;51.052;9.850;2023-03-04T10:28:26;99049.14;;;4.73;65.51
77323;BME280;66384;51.052;9.850;2023-03-04T10:31:01;99050.91;;;4.71;65.72
77323;BME280;66384;51.052;9.850;2023-03-04T10:33:35;99054.41;;;4.70;65.81
77323;BME280;66384;51.052;9.850;2023-03-04T10:36:24;99048.41;;;4.69;65.95
77323;BME280;66384;51.052;9.850;2023-03-04T10:38:54;99048.75;;;4.72;66.11
77323;BME280;66384;51.052;9.850;2023-03-04T10:41:27;99047.72;;;4.75;66.22
77323;BME280;66384;51.052;9.850;2023-03-04T10:44:03;99047.52;;;4.77;66.15
77323;BME280;66384;51.052;9.850;2023-03-04T10:46:35;99046.22;;;4.78;66.14
77323;BME280;66384;51.052;9.850;2023-03-04T10:49:05;99044.48;;;4.81;66.34
77323;BME280;66384;51.052;9.850;2023-03-04T10:51:42;99044.40;;;4.83;66.28
77323;BME280;66384;51.052;9.850;2023-03-04T10:54:23;99041.29;;;4.79;66.09
77323;BME280;66384;51.052;9.850;2023-03-04T10:56:59;99040.35;;;4.77;66.07
77323;BME280;66384;51.052;9.850;2023-03-04T10:59:38;99035.52;;;4.79;66.25
77323;BME280;66384;51.052;9.850;2023-03-04T11:02:21;99029.50;;;4.85;66.28
77323;BME280;66384;51.052;9.850;2023-03-04T11:04:54;99026.98;;;4.92;66.01
77323;BME280;66384;51.052;9.850;2023-03-04T11:07:25;99025.23;;;5.00;66.01
77323;BME280;66384;51.052;9.850;2023-03-04T11:09:55;99023.07;;;5.08;65.73
77323;BME280;66384;51.052;9.850;2023-03-04T11:12:35;99022.41;;;5.15;65.83
77323;BME280;66384;51.052;9.850;2023-03-04T11:15:18;99015.91;;;5.17;65.99
77323;BME280;66384;51.052;9.850;2023-03-04T11:17:54;99016.34;;;5.19;65.93
77323;BME280;66384;51.052;9.850;2023-03-04T11:20:32;99014.08;;;5.18;65.99
77323;BME280;66384;51.052;9.850;2023-03-04T11:23:04;99013.92;;;5.18;65.83
77323;BME280;66384;51.052;9.850;2023-03-04T11:25:37;99014.94;;;5.18;65.76
77323;BME280;66384;51.052;9.850;2023-03-04T11:28:14;99010.55;;;5.19;65.83
77323;BME280;66384;51.052;9.850;2023-03-04T11:30:51;99008.95;;;5.24;65.77
77323;BME280;66384;51.052;9.850;2023-03-04T11:33:27;99005.88;;;5.28;65.62
77323;BME280;66384;51.052;9.850;2023-03-04T11:36:15;99005.59;;;5.32;65.63
77323;BME280;66384;51.052;9.850;2023-03-04T11:38:50;99006.77;;;5.38;65.40
77323;BME280;66384;51.052;9.850;2023-03-04T11:41:24;99003.77;;;5.39;65.33
77323;BME280;66384;51.052;9.850;2023-03-04T11:43:55;99003.63;;;5.40;65.30
77323;BME280;66384;51.052;9.850;2023-03-04T11:46:38;99002.95;;;5.40;65.33
77323;BME280;66384;51.052;9.850;2023-03-04T11:49:26;99001.02;;;5.39;65.23
77323;BME280;66384;51.052;9.850;2023-03-04T11:52:05;98998.77;;;5.38;65.22
77323;BME280;66384;51.052;9.850;2023-03-04T11:54:42;98997.16;;;5.40;65.29
77323;BME280;66384;51.052;9.850;2023-03-04T11:57:26;98993.88;;;5.40;65.27
77323;BME280;66384;51.052;9.850;2023-03-04T12:00:06;98993.88;;;5.40;65.29
77323;BME280;66384;51.052;9.850;2023-03-04T12:02:47;98987.23;;;5.36;65.27
77323;BME280;66384;51.052;9.850;2023-03-04T12:05:45;98984.83;;;5.33;65.27
77323;BME280;66384;51.052;9.850;2023-03-04T12:08:32;98984.79;;;5.32;65.44
77323;BME280;66384;51.052;9.850;2023-03-04T12:11:07;98978.66;;;5.36;65.43
77323;BME280;66384;51.052;9.850;2023-03-04T12:14:11;98971.16;;;5.39;65.45
77323;BME280;66384;51.052;9.850;2023-03-04T12:17:00;98974.86;;;5.38;65.24
77323;BME280;66384;51.052;9.850;2023-03-04T12:19:42;98974.92;;;5.39;65.38
77323;BME280;66384;51.052;9.850;2023-03-04T12:22:27;98966.59;;;5.40;65.48
77323;BME280;66384;51.052;9.850;2023-03-04T12:25:17;98968.05;;;5.41;65.46
77323;BME280;66384;51.052;9.850;2023-03-04T12:27:56;98962.22;;;5.41;65.37
77323;BME280;66384;51.052;9.850;2023-03-04T12:30:37;98960.60;;;5.36;65.51
77323;BME280;66384;51.052;9.850;2023-03-04T12:33:16;98962.63;;;5.32;65.69
77323;BME280;66384;51.052;9.850;2023-03-04T12:35:55;98963.02;;;5.30;65.90
77323;BME280;66384;51.052;9.850;2023-03-04T12:38:39;98964.91;;;5.27;66.38
77323;BME280;66384;51.052;9.850;2023-03-04T12:41:24;98960.29;;;5.23;66.49
77323;BME280;66384;51.052;9.850;2023-03-04T12:44:02;98958.31;;;5.24;66.58
77323;BME280;66384;51.052;9.850;2023-03-04T12:46:46;98954.92;;;5.25;66.72
77323;BME280;66384;51.052;9.850;2023-03-04T12:49:29;98951.98;;;5.24;66.77
77323;BME280;66384;51.052;9.850;2023-03-04T12:52:10;98950.45;;;5.24;66.67
77323;BME280;66384;51.052;9.850;2023-03-04T12:54:46;98948.23;;;5.24;66.53
77323;BME280;66384;51.052;9.850;2023-03-04T12:57:19;98938.39;;;5.25;66.57
77323;BME280;66384;51.052;9.850;2023-03-04T12:59:56;98937.11;;;5.30;66.64
77323;BME280;66384;51.052;9.850;2023-03-04T13:02:38;98932.49;;;5.33;66.69
77323;BME280;66384;51.052;9.850;2023-03-04T13:08:12;98931.70;;;5.44;66.63
77323;BME280;66384;51.052;9.850;2023-03-04T13:10:44;98926.86;;;5.51;66.05
77323;BME280;66384;51.052;9.850;2023-03-04T13:13:34;98925.73;;;5.55;66.24
77323;BME280;66384;51.052;9.850;2023-03-04T13:16:05;98921.55;;;5.63;66.13
77323;BME280;66384;51.052;9.850;2023-03-04T13:18:54;98917.33;;;5.68;66.07
77323;BME280;66384;51.052;9.850;2023-03-04T13:21:25;98919.27;;;5.73;66.03
77323;BME280;66384;51.052;9.850;2023-03-04T13:23:55;98911.74;;;5.80;65.61
77323;BME280;66384;51.052;9.850;2023-03-04T13:26:30;98913.15;;;5.84;65.40
77323;BME280;66384;51.052;9.850;2023-03-04T13:29:33;98910.69;;;5.86;64.96
77323;BME280;66384;51.052;9.850;2023-03-04T13:32:08;98904.14;;;5.88;64.53
77323;BME280;66384;51.052;9.850;2023-03-04T13:34:50;98903.75;;;5.90;64.38
77323;BME280;66384;51.052;9.850;2023-03-04T13:37:32;98905.29;;;5.94;64.12
77323;BME280;66384;51.052;9.850;2023-03-04T13:40:33;98902.14;;;5.96;63.99